createdAt,value
2023-05-12T00:01:50.450Z,96.31
2023-05-12T00:04:20.039Z,96.25
2023-05-12T00:06:48.470Z,96.35
2023-05-12T00:09:16.532Z,96.43
2023-05-12T00:11:44.537Z,95.89
2023-05-12T00:14:12.566Z,95.99
2023-05-12T00:16:40.778Z,96.37
2023-05-12T00:19:09.001Z,96.49
2023-05-12T00:21:38.570Z,96.52
2023-05-12T00:24:07.436Z,96.69
2023-05-12T00:26:35.457Z,96.58
2023-05-12T00:29:03.520Z,97.04
2023-05-12T00:31:31.737Z,97.29
2023-05-12T00:33:59.660Z,97.51
2023-05-12T00:36:28.038Z,97.92
2023-05-12T00:38:59.487Z,97.99
2023-05-12T00:41:27.536Z,98.06
2023-05-12T00:43:55.407Z,98.16
2023-05-12T00:46:23.453Z,98.09
2023-05-12T00:48:51.781Z,98.18
2023-05-12T00:51:20.152Z,98.11
2023-05-12T00:53:50.590Z,98.30
2023-05-12T00:56:20.537Z,98.18
2023-05-12T00:58:49.062Z,97.99
2023-05-12T01:01:17.233Z,98.46
2023-05-12T01:03:45.627Z,98.42
2023-05-12T01:06:17.902Z,98.58
2023-05-12T01:08:47.052Z,98.46
2023-05-12T01:11:15.064Z,99.20
2023-05-12T01:13:44.345Z,99.11
2023-05-12T01:16:16.120Z,98.99
2023-05-12T01:18:49.981Z,99.11
2023-05-12T01:21:19.197Z,99.63
2023-05-12T01:23:52.863Z,99.34
2023-05-12T01:26:22.674Z,99.29
2023-05-12T01:28:51.599Z,99.53
2023-05-12T01:31:21.242Z,99.55
2023-05-12T01:33:49.378Z,99.96
2023-05-12T01:36:17.409Z,99.92
2023-05-12T01:38:45.423Z,99.68
2023-05-12T01:41:13.473Z,99.83
2023-05-12T01:43:42.930Z,99.94
2023-05-12T01:46:11.312Z,99.18
2023-05-12T01:48:39.439Z,99.42
2023-05-12T01:51:09.800Z,99.48
2023-05-12T01:53:37.993Z,99.41
2023-05-12T01:56:06.292Z,100.00
2023-05-12T01:58:34.396Z,100.00
2023-05-12T02:01:03.756Z,100.00
2023-05-12T02:03:31.955Z,100.00
2023-05-12T02:06:00.013Z,100.00
2023-05-12T02:08:27.914Z,100.00
2023-05-12T02:11:06.316Z,100.00
2023-05-12T02:13:34.379Z,100.00
2023-05-12T02:16:04.008Z,100.00
2023-05-12T02:18:32.050Z,100.00
2023-05-12T02:21:00.126Z,100.00
2023-05-12T02:23:28.033Z,100.00
2023-05-12T02:25:55.844Z,99.83
2023-05-12T02:28:23.963Z,99.79
2023-05-12T02:30:53.188Z,99.62
2023-05-12T02:33:23.109Z,99.57
2023-05-12T02:35:51.178Z,99.28
2023-05-12T02:38:19.447Z,98.92
2023-05-12T02:40:48.000Z,98.91
2023-05-12T02:43:15.885Z,99.02
2023-05-12T02:45:44.093Z,99.29
2023-05-12T02:48:12.321Z,99.42
2023-05-12T02:50:41.896Z,99.00
2023-05-12T02:53:09.904Z,98.63
2023-05-12T02:55:37.830Z,98.59
2023-05-12T02:58:08.206Z,98.80
2023-05-12T03:00:39.456Z,98.84
2023-05-12T03:03:07.779Z,98.51
2023-05-12T03:05:35.790Z,98.09
2023-05-12T03:08:06.825Z,98.94
2023-05-12T03:10:34.807Z,98.96
2023-05-12T03:13:02.735Z,98.50
2023-05-12T03:15:30.902Z,98.09
2023-05-12T03:17:59.206Z,98.31
2023-05-12T03:20:28.866Z,98.16
2023-05-12T03:22:56.685Z,98.24
2023-05-12T03:25:25.998Z,97.95
2023-05-12T03:27:53.782Z,97.99
2023-05-12T03:30:21.963Z,98.00
2023-05-12T03:32:49.931Z,98.11
2023-05-12T03:35:18.044Z,97.92
2023-05-12T03:37:46.267Z,98.09
2023-05-12T03:40:20.297Z,98.64
2023-05-12T03:42:49.938Z,98.19
2023-05-12T03:45:18.002Z,98.23
2023-05-12T03:47:45.968Z,98.42
2023-05-12T03:50:14.073Z,98.58
2023-05-12T03:52:42.215Z,98.17
2023-05-12T03:55:10.546Z,98.39
2023-05-12T03:57:38.687Z,98.73
2023-05-12T04:00:09.393Z,98.19
2023-05-12T04:02:37.303Z,97.70
2023-05-12T04:05:08.324Z,97.53
2023-05-12T04:07:44.365Z,97.63
2023-05-12T04:10:12.436Z,97.03
2023-05-12T04:12:40.472Z,97.24
2023-05-12T04:15:10.899Z,97.28
2023-05-12T04:17:39.179Z,97.16
2023-05-12T04:20:10.931Z,96.73
2023-05-12T04:22:38.918Z,96.95
2023-05-12T04:25:07.515Z,97.29
2023-05-12T04:27:37.337Z,96.84
2023-05-12T04:30:06.384Z,96.64
2023-05-12T04:32:36.654Z,96.72
2023-05-12T04:35:05.304Z,96.25
2023-05-12T04:37:33.477Z,96.52
2023-05-12T04:40:01.404Z,96.46
2023-05-12T04:42:29.390Z,96.34
2023-05-12T04:44:57.179Z,96.30
2023-05-12T04:47:25.608Z,96.33
2023-05-12T04:49:54.917Z,96.25
2023-05-12T04:52:24.784Z,96.07
2023-05-12T04:54:53.494Z,95.87
2023-05-12T04:57:21.353Z,96.10
2023-05-12T04:59:49.240Z,96.34
2023-05-12T05:02:21.197Z,96.55
2023-05-12T05:04:49.871Z,96.09
2023-05-12T05:07:19.660Z,96.29
2023-05-12T05:09:48.067Z,95.91
2023-05-12T05:12:17.717Z,96.15
2023-05-12T05:14:46.383Z,96.18
2023-05-12T05:17:15.014Z,96.17
2023-05-12T05:19:54.823Z,95.56
2023-05-12T05:22:28.561Z,96.10
2023-05-12T05:24:56.772Z,95.95
2023-05-12T05:27:24.651Z,95.21
2023-05-12T05:29:52.493Z,94.83
2023-05-12T05:32:20.391Z,94.96
2023-05-12T05:34:48.765Z,94.92
2023-05-12T05:37:19.880Z,94.45
2023-05-12T05:40:02.363Z,94.46
2023-05-12T05:43:20.639Z,94.95
2023-05-12T05:46:06.263Z,94.58
2023-05-12T05:48:46.313Z,93.90
2023-05-12T05:51:50.737Z,93.48
2023-05-12T05:55:38.724Z,92.73
2023-05-12T05:57:48.439Z,90.57
2023-05-12T06:00:31.389Z,89.62
2023-05-12T06:03:10.338Z,89.35
2023-05-12T06:05:38.972Z,88.98
2023-05-12T06:08:09.410Z,88.64
2023-05-12T06:10:38.378Z,88.67
2023-05-12T06:13:07.952Z,88.37
2023-05-12T06:18:33.921Z,86.92
2023-05-12T06:21:04.528Z,85.87
2023-05-12T06:23:32.732Z,85.59
2023-05-12T06:26:02.149Z,85.49
2023-05-12T06:28:31.693Z,84.45
2023-05-12T06:30:59.962Z,84.77
2023-05-12T06:33:33.734Z,84.12
2023-05-12T06:36:03.840Z,84.54
2023-05-12T06:38:31.896Z,84.18
2023-05-12T06:40:59.886Z,84.09
2023-05-12T06:43:27.839Z,84.85
2023-05-12T06:45:57.881Z,85.10
2023-05-12T06:48:25.944Z,83.92
2023-05-12T06:50:54.090Z,81.95
2023-05-12T06:53:25.516Z,82.92
2023-05-12T06:55:55.234Z,81.98
2023-05-12T06:58:29.502Z,80.98
2023-05-12T07:00:59.347Z,80.85
2023-05-12T07:03:36.811Z,81.77
2023-05-12T07:06:09.200Z,82.66
2023-05-12T07:08:39.373Z,81.78
2023-05-12T07:11:07.430Z,80.64
2023-05-12T07:13:35.713Z,79.90
2023-05-12T07:16:05.624Z,80.87
2023-05-12T07:18:33.604Z,81.36
2023-05-12T07:21:01.586Z,80.87
2023-05-12T07:23:29.688Z,81.33
2023-05-12T07:25:57.561Z,81.88
2023-05-12T07:28:25.656Z,81.16
2023-05-12T07:30:53.614Z,82.17
2023-05-12T07:33:23.065Z,79.89
2023-05-12T07:35:51.059Z,80.12
2023-05-12T07:38:19.069Z,81.01
2023-05-12T07:40:47.341Z,82.41
2023-05-12T07:43:15.402Z,81.45
2023-05-12T07:45:43.527Z,81.05
2023-05-12T07:48:12.015Z,81.42
2023-05-12T07:50:41.504Z,80.97
2023-05-12T07:53:09.565Z,81.32
2023-05-12T07:55:40.209Z,81.17
2023-05-12T07:58:08.305Z,81.22
2023-05-12T08:00:38.489Z,81.19
2023-05-12T08:03:19.202Z,81.41
2023-05-12T08:05:48.986Z,82.26
2023-05-12T08:08:19.539Z,82.32
2023-05-12T08:10:47.552Z,81.22
2023-05-12T08:13:15.844Z,81.85
2023-05-12T08:15:50.073Z,82.14
2023-05-12T08:18:20.064Z,82.44
2023-05-12T08:20:50.531Z,81.29
2023-05-12T08:23:33.895Z,81.85
2023-05-12T08:26:10.498Z,81.64
2023-05-12T08:28:41.498Z,80.81
2023-05-12T08:31:11.732Z,80.51
2023-05-12T08:33:40.860Z,80.07
2023-05-12T08:36:10.537Z,79.78
2023-05-12T08:38:38.778Z,79.63
2023-05-12T08:41:17.984Z,78.25
2023-05-12T08:43:47.703Z,78.51
2023-05-12T08:46:17.551Z,77.35
2023-05-12T08:48:47.955Z,77.75
2023-05-12T08:51:20.940Z,79.33
2023-05-12T08:53:52.545Z,77.92
2023-05-12T08:58:58.931Z,75.67
2023-05-12T09:01:29.836Z,76.77
2023-05-12T09:03:57.774Z,76.63
2023-05-12T09:06:27.474Z,76.06
2023-05-12T09:08:55.777Z,76.64
2023-05-12T09:11:23.902Z,74.56
2023-05-12T09:14:00.234Z,74.71
2023-05-12T09:16:31.394Z,73.53
2023-05-12T09:19:00.870Z,73.16
2023-05-12T09:21:30.294Z,72.59
2023-05-12T09:24:00.063Z,70.55
2023-05-12T09:26:29.831Z,71.72
2023-05-12T09:29:06.635Z,71.54
2023-05-12T09:31:35.030Z,71.18
2023-05-12T09:34:08.520Z,72.16
2023-05-12T09:36:38.438Z,71.25
2023-05-12T09:39:11.119Z,68.09
2023-05-12T09:41:39.729Z,69.06
2023-05-12T09:44:08.882Z,68.89
2023-05-12T09:46:37.292Z,70.10
2023-05-12T09:49:05.295Z,69.32
2023-05-12T09:51:33.326Z,69.26
2023-05-12T09:54:05.710Z,69.33
2023-05-12T09:56:39.754Z,67.11
2023-05-12T09:59:07.836Z,68.59
2023-05-12T10:01:36.836Z,67.62
2023-05-12T10:04:09.121Z,65.92
2023-05-12T10:06:39.224Z,67.77
2023-05-12T10:09:18.291Z,66.75
2023-05-12T10:11:48.023Z,65.63
2023-05-12T10:14:18.028Z,63.36
2023-05-12T10:16:46.963Z,63.74
2023-05-12T10:19:15.388Z,63.03
2023-05-12T10:21:46.156Z,62.32
2023-05-12T10:24:16.115Z,62.65
2023-05-12T10:26:45.071Z,63.64
2023-05-12T10:29:14.543Z,61.93
2023-05-12T10:31:45.716Z,62.06
2023-05-12T10:34:18.817Z,61.68
2023-05-12T10:36:51.018Z,61.41
2023-05-12T10:39:20.971Z,63.19
2023-05-12T10:41:50.524Z,63.55
2023-05-12T10:44:28.298Z,61.35
2023-05-12T10:46:59.134Z,61.82
2023-05-12T10:49:34.786Z,61.43
2023-05-12T10:52:03.120Z,61.53
2023-05-12T10:54:40.708Z,59.67
2023-05-12T10:57:17.976Z,60.11
2023-05-12T10:59:51.984Z,60.23
2023-05-12T11:02:27.433Z,59.51
2023-05-12T11:04:58.261Z,59.12
2023-05-12T11:07:30.447Z,58.79
2023-05-12T11:10:02.328Z,56.94
2023-05-12T11:12:33.306Z,58.47
2023-05-12T11:15:04.884Z,58.12
2023-05-12T11:17:33.392Z,58.71
2023-05-12T11:20:03.276Z,57.54
2023-05-12T11:22:31.439Z,58.08
2023-05-12T11:25:12.472Z,57.67
2023-05-12T11:27:44.922Z,55.96
2023-05-12T11:30:13.787Z,55.92
2023-05-12T11:32:42.773Z,55.73
2023-05-12T11:35:16.570Z,56.67
2023-05-12T11:37:46.284Z,54.98
2023-05-12T11:40:20.619Z,56.43
2023-05-12T11:42:52.815Z,54.98
2023-05-12T11:45:26.053Z,56.01
2023-05-12T11:47:55.515Z,55.54
2023-05-12T11:50:25.871Z,57.21
2023-05-12T11:52:54.742Z,56.30
2023-05-12T11:55:27.341Z,56.71
2023-05-12T11:58:00.326Z,56.75
2023-05-12T12:00:33.228Z,57.20
2023-05-12T12:03:09.106Z,56.78
2023-05-12T12:05:40.787Z,56.25
2023-05-12T12:13:18.223Z,54.10
2023-05-12T12:25:56.343Z,55.78
2023-05-12T12:53:51.013Z,53.36
2023-05-12T12:56:19.696Z,54.19
2023-05-12T12:58:47.832Z,54.97
2023-05-12T13:01:18.095Z,55.46
2023-05-12T13:03:46.261Z,53.75
2023-05-12T13:06:14.325Z,54.83
2023-05-12T13:08:44.022Z,54.08
2023-05-12T13:11:12.193Z,54.06
2023-05-12T13:13:40.168Z,54.52
2023-05-12T13:16:08.802Z,54.91
2023-05-12T13:18:50.704Z,54.12
2023-05-12T13:21:19.353Z,53.93
2023-05-12T13:23:48.726Z,54.49
2023-05-12T13:26:16.866Z,54.79
2023-05-12T13:28:44.805Z,55.04
2023-05-12T13:31:13.300Z,54.12
2023-05-12T13:33:41.378Z,54.03
2023-05-12T13:36:09.913Z,53.19
2023-05-12T13:38:41.518Z,54.05
2023-05-12T13:41:16.709Z,53.46
2023-05-12T13:43:46.253Z,52.97
2023-05-12T13:46:14.809Z,52.30
2023-05-12T13:48:43.528Z,52.25
2023-05-12T13:51:12.775Z,52.97
2023-05-12T13:53:47.996Z,50.68
2023-05-12T13:56:19.117Z,50.84
2023-05-12T13:58:47.929Z,52.36
2023-05-12T14:01:19.664Z,51.60
2023-05-12T14:03:50.833Z,51.82
2023-05-12T14:06:26.833Z,52.30
2023-05-12T14:09:15.578Z,53.28
2023-05-12T14:11:48.441Z,52.67
2023-05-12T14:14:16.532Z,51.55
2023-05-12T14:16:44.594Z,51.89
2023-05-12T14:19:13.642Z,53.09
2023-05-12T14:21:42.387Z,53.85
2023-05-12T14:24:10.700Z,53.46
2023-05-12T14:26:41.158Z,51.68
2023-05-12T14:29:10.586Z,52.31
2023-05-12T14:31:38.808Z,53.06
2023-05-12T14:34:09.238Z,50.07
2023-05-12T14:36:38.046Z,49.77
2023-05-12T14:39:08.877Z,49.73
2023-05-12T14:41:37.194Z,48.69
2023-05-12T14:44:05.812Z,47.78
2023-05-12T14:46:36.861Z,46.21
2023-05-12T14:49:10.539Z,46.52
2023-05-12T14:51:38.664Z,47.91
2023-05-12T14:54:21.885Z,49.92
2023-05-12T14:56:52.798Z,58.35
2023-05-12T14:59:20.937Z,63.41
2023-05-12T15:01:50.398Z,69.54
2023-05-12T15:04:18.319Z,69.87
2023-05-12T15:06:46.714Z,70.85
2023-05-12T15:09:14.631Z,70.06
2023-05-12T15:11:44.568Z,68.75
2023-05-12T15:14:13.841Z,70.39
2023-05-12T15:16:41.772Z,70.99
2023-05-12T15:19:11.477Z,73.04
2023-05-12T15:21:42.458Z,67.66
2023-05-12T15:24:10.754Z,63.12
2023-05-12T15:26:40.276Z,69.71
2023-05-12T15:29:08.450Z,72.12
2023-05-12T15:31:38.054Z,72.92
2023-05-12T15:34:06.354Z,73.37
2023-05-12T15:36:36.048Z,73.12
2023-05-12T15:39:05.842Z,74.44
2023-05-12T15:41:33.939Z,76.19
2023-05-12T15:44:01.981Z,77.76
2023-05-12T15:46:33.009Z,76.64
2023-05-12T15:49:01.011Z,75.02
2023-05-12T15:51:29.918Z,77.09
2023-05-12T15:53:59.160Z,77.84
2023-05-12T15:56:27.395Z,79.61
2023-05-12T15:58:56.907Z,77.90
2023-05-12T16:01:25.029Z,76.92
2023-05-12T16:03:54.049Z,74.61
2023-05-12T16:06:22.102Z,70.66
2023-05-12T16:08:50.719Z,73.32
2023-05-12T16:11:19.925Z,75.96
2023-05-12T16:13:47.709Z,73.17
2023-05-12T16:16:15.874Z,76.29
2023-05-12T16:18:43.923Z,73.59
2023-05-12T16:21:12.718Z,75.92
2023-05-12T16:23:41.021Z,76.99
2023-05-12T16:26:09.050Z,78.77
2023-05-12T16:28:38.476Z,80.04
2023-05-12T16:31:06.442Z,80.79
2023-05-12T16:33:34.243Z,81.73
2023-05-12T16:36:02.028Z,81.34
2023-05-12T16:38:32.368Z,82.47
2023-05-12T16:41:01.570Z,82.85
2023-05-12T16:43:29.362Z,83.57
2023-05-12T16:46:02.965Z,84.27
2023-05-12T16:48:34.347Z,84.48
2023-05-12T16:51:03.477Z,83.04
2023-05-12T16:53:31.468Z,83.53
2023-05-12T16:55:59.752Z,84.23
2023-05-12T16:58:31.233Z,84.68
2023-05-12T17:00:59.320Z,85.14
2023-05-12T17:03:29.453Z,85.09
2023-05-12T17:05:57.467Z,84.87
2023-05-12T17:08:25.699Z,85.86
2023-05-12T17:10:53.505Z,85.26
2023-05-12T17:13:21.482Z,84.38
2023-05-12T17:15:49.222Z,85.04
2023-05-12T17:18:17.006Z,84.05
2023-05-12T17:20:46.265Z,84.42
2023-05-12T17:23:13.986Z,85.01
2023-05-12T17:25:41.695Z,86.25
2023-05-12T17:28:10.775Z,85.75
2023-05-12T17:30:38.631Z,85.77
2023-05-12T17:33:07.502Z,86.50
2023-05-12T17:35:35.587Z,85.50
2023-05-12T17:38:05.173Z,86.03
2023-05-12T17:40:33.061Z,84.44
2023-05-12T17:43:00.930Z,84.96
2023-05-12T17:45:28.790Z,83.42
2023-05-12T17:47:56.895Z,84.12
2023-05-12T17:50:24.814Z,84.78
2023-05-12T17:52:54.901Z,83.37
2023-05-12T17:55:24.479Z,84.10
2023-05-12T17:57:52.788Z,84.87
2023-05-12T18:00:21.175Z,85.62
2023-05-12T18:02:49.118Z,85.26
2023-05-12T18:05:17.239Z,85.06
2023-05-12T18:07:45.085Z,85.44
2023-05-12T18:10:13.000Z,83.04
2023-05-12T18:12:42.282Z,83.47
2023-05-12T18:15:10.704Z,84.46
2023-05-12T18:17:38.621Z,83.94
2023-05-12T18:20:07.976Z,85.48
2023-05-12T18:22:37.039Z,85.86
2023-05-12T18:25:05.471Z,85.59
2023-05-12T18:27:33.247Z,86.05
2023-05-12T18:30:02.634Z,86.13
2023-05-12T18:32:31.124Z,86.55
2023-05-12T18:34:59.534Z,86.36
2023-05-12T18:37:27.409Z,86.38
2023-05-12T18:39:55.502Z,86.11
2023-05-12T18:42:34.476Z,85.72
2023-05-12T18:45:03.960Z,85.14
2023-05-12T18:47:31.827Z,85.67
2023-05-12T18:49:59.701Z,84.96
2023-05-12T18:52:27.491Z,86.09
2023-05-12T18:54:55.328Z,85.55
2023-05-12T18:57:23.173Z,85.78
2023-05-12T18:59:51.148Z,86.67
2023-05-12T19:02:20.757Z,86.21
2023-05-12T19:04:48.854Z,86.81
2023-05-12T19:07:17.018Z,87.02
2023-05-12T19:09:45.269Z,87.24
2023-05-12T19:12:13.080Z,87.34
2023-05-12T19:14:42.999Z,87.40
2023-05-12T19:17:11.032Z,87.59
2023-05-12T19:19:40.344Z,87.72
2023-05-12T19:22:08.154Z,87.86
2023-05-12T19:24:38.018Z,87.62
2023-05-12T19:27:06.142Z,87.85
2023-05-12T19:29:34.030Z,87.59
2023-05-12T19:32:02.020Z,87.61
2023-05-12T19:34:31.483Z,87.90
2023-05-12T19:37:01.198Z,87.69
2023-05-12T19:39:29.162Z,87.83
2023-05-12T19:41:56.971Z,88.07
2023-05-12T19:44:24.748Z,87.88
2023-05-12T19:46:52.674Z,87.95
2023-05-12T19:49:20.563Z,88.45
2023-05-12T19:51:48.690Z,88.35
2023-05-12T19:54:17.956Z,88.93
2023-05-12T19:56:45.803Z,89.11
2023-05-12T19:59:18.475Z,89.20
2023-05-12T20:01:46.726Z,89.11
2023-05-12T20:04:14.728Z,89.50
2023-05-12T20:06:43.163Z,89.20
2023-05-12T20:09:11.184Z,89.44
2023-05-12T20:11:40.586Z,89.79
2023-05-12T20:14:08.389Z,89.59
2023-05-12T20:16:38.232Z,89.79
2023-05-12T20:19:06.261Z,89.80
2023-05-12T20:21:34.551Z,89.44
2023-05-12T20:24:06.080Z,89.21
2023-05-12T20:26:34.123Z,89.60
2023-05-12T20:29:05.421Z,89.81
2023-05-12T20:31:33.524Z,89.77
2023-05-12T20:34:01.297Z,89.47
2023-05-12T20:36:29.132Z,89.41
2023-05-12T20:38:56.932Z,89.49
2023-05-12T20:41:24.649Z,89.66
2023-05-12T20:43:52.461Z,89.64
2023-05-12T20:46:21.682Z,89.39
2023-05-12T20:48:49.472Z,89.07
2023-05-12T20:51:17.220Z,89.13
2023-05-12T20:53:45.026Z,89.36
2023-05-12T20:56:13.127Z,89.34
2023-05-12T20:58:40.968Z,89.62
2023-05-12T21:01:08.752Z,89.09
2023-05-12T21:03:38.014Z,89.18
2023-05-12T21:06:06.588Z,89.55
2023-05-12T21:08:34.428Z,89.55
2023-05-12T21:11:02.746Z,89.66
2023-05-12T21:13:30.570Z,89.80
2023-05-12T21:16:09.732Z,89.90
2023-05-12T21:18:52.579Z,90.10
2023-05-12T21:25:07.375Z,90.07
2023-05-12T21:27:35.769Z,89.63
2023-05-12T21:30:03.496Z,89.26
2023-05-12T21:32:31.233Z,89.30
2023-05-12T21:35:00.337Z,89.18
2023-05-12T21:37:28.048Z,89.35
2023-05-12T21:39:55.862Z,89.07
2023-05-12T21:42:23.687Z,89.16
2023-05-12T21:44:51.568Z,88.23
2023-05-12T21:47:19.648Z,88.66
2023-05-12T21:49:47.588Z,87.38
2023-05-12T21:52:16.814Z,87.80
2023-05-12T21:54:44.545Z,86.80
2023-05-12T21:57:12.402Z,88.43
2023-05-12T21:59:40.335Z,87.89
2023-05-12T22:02:09.653Z,86.96
2023-05-12T22:04:37.547Z,85.71
2023-05-12T22:07:05.904Z,85.04
2023-05-12T22:09:36.668Z,85.89
2023-05-12T22:12:04.760Z,85.07
2023-05-12T22:14:32.515Z,85.02
2023-05-12T22:17:00.756Z,84.27
2023-05-12T22:19:28.843Z,85.23
2023-05-12T22:21:57.127Z,84.68
2023-05-12T22:24:24.874Z,85.34
2023-05-12T22:26:54.092Z,84.23
2023-05-12T22:29:21.933Z,84.77
2023-05-12T22:31:49.755Z,85.21
2023-05-12T22:34:17.576Z,84.88
2023-05-12T22:36:46.139Z,83.93
2023-05-12T22:39:14.656Z,84.58
2023-05-12T22:41:42.632Z,84.50
2023-05-12T22:44:11.898Z,84.11
2023-05-12T22:46:39.693Z,84.42
2023-05-12T22:49:07.502Z,84.89
2023-05-12T22:51:35.514Z,85.43
2023-05-12T22:54:03.308Z,85.37
2023-05-12T22:56:31.078Z,86.23
2023-05-12T22:58:58.900Z,86.42
2023-05-12T23:01:28.108Z,87.21
2023-05-12T23:03:55.936Z,87.14
2023-05-12T23:06:37.103Z,87.42
2023-05-12T23:09:05.097Z,87.30
2023-05-12T23:11:32.909Z,87.24
2023-05-12T23:14:00.704Z,87.14
2023-05-12T23:16:29.888Z,87.64
2023-05-12T23:18:57.717Z,87.83
2023-05-12T23:21:25.526Z,87.40
2023-05-12T23:23:53.292Z,87.52
2023-05-12T23:26:21.305Z,87.85
2023-05-12T23:28:49.058Z,87.54
2023-05-12T23:31:16.998Z,87.34
2023-05-12T23:33:46.269Z,87.91
2023-05-12T23:36:14.553Z,87.71
2023-05-12T23:38:42.412Z,87.76
2023-05-12T23:41:10.184Z,88.00
2023-05-12T23:43:39.834Z,88.14
2023-05-12T23:46:07.672Z,88.14
2023-05-12T23:48:37.309Z,87.85
2023-05-12T23:51:06.586Z,88.54
2023-05-12T23:53:34.394Z,88.72
2023-05-12T23:56:02.830Z,88.83
2023-05-12T23:58:30.545Z,88.71
